createdAt,value
2019-02-04T00:02:20.962Z,79.27
2019-02-04T00:04:51.761Z,80.07
2019-02-04T00:07:22.328Z,79.49
2019-02-04T00:09:52.953Z,80.18
2019-02-04T00:12:23.516Z,80.94
2019-02-04T00:14:53.815Z,80.83
2019-02-04T00:17:24.108Z,81.11
2019-02-04T00:19:55.150Z,81.56
2019-02-04T00:22:25.425Z,80.69
2019-02-04T00:24:55.870Z,79.41
2019-02-04T00:27:26.496Z,81.80
2019-02-04T00:29:57.019Z,82.62
2019-02-04T00:32:27.679Z,82.31
2019-02-04T00:34:58.432Z,83.14
2019-02-04T00:37:29.232Z,83.14
2019-02-04T00:39:59.555Z,83.81
2019-02-04T00:42:30.088Z,83.99
2019-02-04T00:45:00.758Z,83.87
2019-02-04T00:47:31.060Z,84.48
2019-02-04T00:50:01.684Z,84.26
2019-02-04T00:52:31.955Z,83.70
2019-02-04T00:55:02.918Z,84.79
2019-02-04T00:57:33.658Z,85.08
2019-02-04T01:00:06.003Z,84.93
2019-02-04T01:02:36.361Z,84.84
2019-02-04T01:05:08.149Z,83.81
2019-02-04T01:07:38.446Z,83.15
2019-02-04T01:10:10.662Z,82.15
2019-02-04T01:12:41.574Z,81.89
2019-02-04T01:15:12.095Z,82.61
2019-02-04T01:17:42.382Z,83.48
2019-02-04T01:20:15.442Z,83.14
2019-02-04T01:22:46.352Z,84.28
2019-02-04T01:25:17.114Z,82.04
2019-02-04T01:27:47.398Z,83.82
2019-02-04T01:30:18.477Z,83.27
2019-02-04T01:32:48.942Z,83.68
2019-02-04T01:35:19.301Z,83.85
2019-02-04T01:37:49.820Z,83.57
2019-02-04T01:40:24.920Z,83.42
2019-02-04T01:42:55.532Z,83.96
2019-02-04T01:45:26.049Z,83.97
2019-02-04T01:47:56.552Z,82.94
2019-02-04T01:50:27.085Z,82.83
2019-02-04T01:52:57.721Z,83.42
2019-02-04T01:55:28.064Z,81.57
2019-02-04T01:57:58.370Z,82.33
2019-02-04T02:00:31.619Z,80.20
2019-02-04T02:03:01.897Z,81.91
2019-02-04T02:05:32.382Z,79.07
2019-02-04T02:08:03.162Z,82.07
2019-02-04T02:10:33.687Z,81.76
2019-02-04T02:13:03.974Z,82.18
2019-02-04T02:15:35.155Z,82.60
2019-02-04T02:18:05.874Z,82.64
2019-02-04T02:20:36.331Z,82.88
2019-02-04T02:23:07.056Z,82.26
2019-02-04T02:25:37.618Z,81.72
2019-02-04T02:28:08.476Z,79.47
2019-02-04T02:30:39.244Z,78.32
2019-02-04T02:33:09.591Z,80.15
2019-02-04T02:35:39.946Z,80.80
2019-02-04T02:38:10.235Z,81.20
2019-02-04T02:40:40.908Z,80.64
2019-02-04T02:43:11.815Z,80.89
2019-02-04T02:45:42.440Z,81.53
2019-02-04T02:48:12.960Z,81.00
2019-02-04T02:50:43.485Z,80.42
2019-02-04T02:53:13.763Z,80.14
2019-02-04T02:55:44.606Z,79.16
2019-02-04T02:58:14.922Z,78.19
2019-02-04T03:00:47.322Z,78.27
2019-02-04T03:03:17.615Z,77.83
2019-02-04T03:05:47.960Z,77.24
2019-02-04T03:08:18.844Z,78.67
2019-02-04T03:10:49.377Z,80.58
2019-02-04T03:13:19.670Z,81.10
2019-02-04T03:15:50.619Z,80.52
2019-02-04T03:18:21.549Z,80.34
2019-02-04T03:20:52.173Z,80.09
2019-02-04T03:23:22.946Z,80.86
2019-02-04T03:25:53.711Z,80.32
2019-02-04T03:28:24.015Z,79.23
2019-02-04T03:30:54.399Z,80.02
2019-02-04T03:33:25.208Z,79.79
2019-02-04T03:35:55.592Z,78.99
2019-02-04T03:38:25.950Z,78.64
2019-02-04T03:40:56.260Z,78.28
2019-02-04T03:43:26.872Z,79.12
2019-02-04T03:45:57.789Z,78.43
2019-02-04T03:48:28.250Z,78.15
2019-02-04T03:50:58.816Z,79.21
2019-02-04T03:53:29.414Z,80.15
2019-02-04T03:55:59.738Z,79.37
2019-02-04T03:58:30.140Z,80.63
2019-02-04T04:01:00.819Z,80.68
2019-02-04T04:03:31.634Z,80.00
2019-02-04T04:06:02.358Z,80.25
2019-02-04T04:08:32.659Z,79.80
2019-02-04T04:11:03.001Z,78.87
2019-02-04T04:13:33.651Z,79.18
2019-02-04T04:16:04.015Z,77.29
2019-02-04T04:18:34.379Z,76.19
2019-02-04T04:21:05.177Z,77.12
2019-02-04T04:23:35.457Z,76.26
2019-02-04T04:26:05.954Z,76.41
2019-02-04T04:28:36.614Z,75.59
2019-02-04T04:31:07.326Z,76.82
2019-02-04T04:33:37.670Z,75.20
2019-02-04T04:36:08.248Z,75.16
2019-02-04T04:38:39.029Z,75.27
2019-02-04T04:41:09.331Z,75.39
2019-02-04T04:43:39.949Z,75.56
2019-02-04T04:46:10.542Z,75.41
2019-02-04T04:48:40.970Z,74.47
2019-02-04T04:51:11.485Z,75.15
2019-02-04T04:53:42.268Z,75.08
2019-02-04T04:56:12.551Z,77.26
2019-02-04T04:58:42.848Z,78.21
2019-02-04T05:01:13.633Z,77.11
2019-02-04T05:03:43.921Z,78.93
2019-02-04T05:06:14.678Z,80.28
2019-02-04T05:08:44.982Z,80.43
2019-02-04T05:11:15.427Z,81.53
2019-02-04T05:13:46.135Z,80.08
2019-02-04T05:16:16.454Z,80.76
2019-02-04T05:18:47.044Z,79.02
2019-02-04T05:21:17.731Z,78.36
2019-02-04T05:23:48.015Z,79.36
2019-02-04T05:26:18.381Z,78.55
2019-02-04T05:28:49.068Z,78.25
2019-02-04T05:31:19.826Z,78.99
2019-02-04T05:33:50.360Z,80.64
2019-02-04T05:36:21.127Z,79.37
2019-02-04T05:38:51.453Z,79.61
2019-02-04T05:41:22.000Z,80.64
2019-02-04T05:43:52.486Z,79.78
2019-02-04T05:46:22.909Z,78.77
2019-02-04T05:48:53.512Z,78.25
2019-02-04T05:51:23.952Z,80.35
2019-02-04T05:53:54.475Z,79.52
2019-02-04T05:56:25.129Z,78.80
2019-02-04T05:58:55.898Z,77.94
2019-02-04T06:01:26.172Z,77.76
2019-02-04T06:03:56.892Z,76.64
2019-02-04T06:06:27.276Z,76.79
2019-02-04T06:08:57.749Z,75.80
2019-02-04T06:11:28.337Z,76.17
2019-02-04T06:13:58.627Z,76.92
2019-02-04T06:16:29.410Z,76.08
2019-02-04T06:19:01.277Z,76.04
2019-02-04T06:21:31.645Z,75.61
2019-02-04T06:24:02.759Z,75.65
2019-02-04T06:26:33.353Z,77.18
2019-02-04T06:29:03.814Z,78.69
2019-02-04T06:31:34.285Z,77.76
2019-02-04T06:34:05.128Z,77.92
2019-02-04T06:36:35.425Z,76.85
2019-02-04T06:39:11.087Z,75.80
2019-02-04T06:41:41.607Z,76.53
2019-02-04T06:44:11.970Z,76.66
2019-02-04T06:46:42.578Z,76.32
2019-02-04T06:49:13.119Z,75.76
2019-02-04T06:51:43.469Z,74.07
2019-02-04T06:54:15.118Z,74.57
2019-02-04T06:56:45.444Z,74.37
2019-02-04T06:59:15.887Z,73.90
2019-02-04T07:01:46.682Z,74.33
2019-02-04T07:04:16.931Z,74.23
2019-02-04T07:06:47.270Z,73.79
2019-02-04T07:09:19.013Z,73.76
2019-02-04T07:11:49.317Z,73.03
2019-02-04T07:14:20.091Z,72.50
2019-02-04T07:16:50.582Z,71.26
2019-02-04T07:19:24.362Z,71.51
2019-02-04T07:21:52.999Z,71.76
2019-02-04T07:24:23.295Z,71.74
2019-02-04T07:26:53.619Z,72.62
2019-02-04T07:29:24.409Z,72.21
2019-02-04T07:31:54.715Z,72.31
2019-02-04T07:34:24.993Z,72.40
2019-02-04T07:36:55.709Z,72.28
2019-02-04T07:39:26.151Z,71.78
2019-02-04T07:41:56.510Z,71.35
2019-02-04T07:44:27.471Z,72.75
2019-02-04T07:46:57.777Z,74.22
2019-02-04T07:49:35.150Z,74.02
2019-02-04T07:52:00.786Z,73.57
2019-02-04T07:54:31.095Z,72.51
2019-02-04T07:57:02.096Z,72.53
2019-02-04T07:59:32.407Z,72.20
2019-02-04T08:02:02.679Z,72.59
2019-02-04T08:04:33.538Z,71.98
2019-02-04T08:07:04.279Z,71.54
2019-02-04T08:09:34.895Z,71.43
2019-02-04T08:12:05.473Z,70.69
2019-02-04T08:14:36.076Z,70.67
2019-02-04T08:17:07.499Z,70.92
2019-02-04T08:19:46.709Z,70.56
2019-02-04T08:22:10.231Z,69.95
2019-02-04T08:24:40.877Z,69.56
2019-02-04T08:27:11.660Z,69.95
2019-02-04T08:29:41.942Z,69.26
2019-02-04T08:32:12.303Z,69.34
2019-02-04T08:34:42.708Z,67.55
2019-02-04T08:37:13.304Z,66.71
2019-02-04T08:39:43.632Z,66.76
2019-02-04T08:42:14.407Z,66.73
2019-02-04T08:44:44.730Z,66.17
2019-02-04T08:47:22.894Z,65.78
2019-02-04T08:49:57.740Z,65.08
2019-02-04T08:52:19.675Z,62.78
2019-02-04T08:54:49.952Z,62.74
2019-02-04T08:57:20.567Z,62.98
2019-02-04T08:59:51.083Z,62.04
2019-02-04T09:02:21.652Z,61.25
2019-02-04T09:04:52.413Z,61.18
2019-02-04T09:07:23.214Z,60.19
2019-02-04T09:09:54.566Z,60.28
2019-02-04T09:12:25.373Z,59.46
2019-02-04T09:14:56.230Z,59.17
2019-02-04T09:17:26.649Z,58.51
2019-02-04T09:19:57.037Z,58.36
2019-02-04T09:22:27.629Z,57.11
2019-02-04T09:24:58.198Z,57.79
2019-02-04T09:27:28.920Z,56.77
2019-02-04T09:29:59.187Z,57.58
2019-02-04T09:32:30.028Z,56.43
2019-02-04T09:35:00.829Z,54.95
2019-02-04T09:37:31.259Z,54.63
2019-02-04T09:40:01.671Z,54.66
2019-02-04T09:42:32.349Z,54.94
2019-02-04T09:45:02.628Z,54.33
2019-02-04T09:47:32.959Z,53.87
2019-02-04T09:50:03.332Z,53.74
2019-02-04T09:52:33.647Z,53.17
2019-02-04T09:55:04.749Z,52.52
2019-02-04T09:57:35.077Z,51.76
2019-02-04T10:00:07.165Z,51.76
2019-02-04T10:02:38.011Z,51.80
2019-02-04T10:05:09.893Z,52.18
2019-02-04T10:07:40.456Z,51.58
2019-02-04T10:10:12.555Z,50.97
2019-02-04T10:12:43.192Z,50.34
2019-02-04T10:15:16.676Z,50.54
2019-02-04T10:17:47.451Z,50.55
2019-02-04T10:20:18.061Z,50.20
2019-02-04T10:22:48.687Z,50.12
2019-02-04T10:25:21.521Z,49.70
2019-02-04T10:27:51.794Z,48.86
2019-02-04T10:30:23.305Z,48.41
2019-02-04T10:32:54.077Z,48.52
2019-02-04T10:35:24.431Z,48.61
2019-02-04T10:37:55.446Z,48.53
2019-02-04T10:40:26.903Z,47.97
2019-02-04T10:42:57.597Z,47.02
2019-02-04T10:45:28.356Z,46.84
2019-02-04T10:47:59.294Z,46.90
2019-02-04T10:50:32.389Z,46.75
2019-02-04T10:53:03.345Z,47.09
2019-02-04T10:55:33.968Z,46.68
2019-02-04T10:58:04.620Z,46.71
2019-02-04T11:00:35.572Z,46.26
2019-02-04T11:03:06.563Z,46.63
2019-02-04T11:05:37.618Z,46.52
2019-02-04T11:08:09.527Z,46.37
2019-02-04T11:10:40.039Z,46.81
2019-02-04T11:13:12.846Z,46.17
2019-02-04T11:15:44.408Z,46.48
2019-02-04T11:18:16.038Z,46.79
2019-02-04T11:20:57.632Z,47.25
2019-02-04T11:23:19.473Z,48.06
2019-02-04T11:25:49.763Z,47.35
2019-02-04T11:28:20.394Z,47.55
2019-02-04T11:30:56.577Z,47.53
2019-02-04T11:33:27.937Z,47.80
2019-02-04T11:35:58.319Z,47.19
2019-02-04T11:38:28.650Z,47.16
2019-02-04T11:40:59.373Z,46.94
2019-02-04T11:43:30.237Z,46.91
2019-02-04T11:46:00.621Z,47.09
2019-02-04T11:48:31.249Z,46.68
2019-02-04T11:51:09.282Z,46.90
2019-02-04T11:53:34.116Z,46.35
2019-02-04T11:56:04.608Z,46.47
2019-02-04T11:58:35.262Z,45.94
2019-02-04T12:01:06.507Z,44.75
2019-02-04T12:03:37.262Z,43.79
2019-02-04T12:06:07.930Z,44.49
2019-02-04T12:08:38.270Z,44.57
2019-02-04T12:11:16.074Z,43.98
2019-02-04T12:13:46.561Z,43.47
2019-02-04T12:16:16.944Z,42.83
2019-02-04T12:18:47.917Z,42.09
2019-02-04T12:21:21.568Z,41.10
2019-02-04T12:23:50.534Z,39.30
2019-02-04T12:26:21.698Z,39.66
2019-02-04T12:28:52.343Z,38.94
2019-02-04T12:31:23.255Z,38.96
2019-02-04T12:33:54.014Z,37.40
2019-02-04T12:36:24.353Z,37.38
2019-02-04T12:38:55.404Z,36.38
2019-02-04T12:41:25.900Z,36.42
2019-02-04T12:43:56.493Z,35.45
2019-02-04T12:46:27.083Z,35.16
2019-02-04T12:48:58.455Z,34.47
2019-02-04T12:51:33.647Z,33.61
2019-02-04T12:54:00.889Z,33.69
2019-02-04T12:56:31.708Z,33.53
2019-02-04T12:59:01.975Z,32.42
2019-02-04T13:01:32.418Z,32.36
2019-02-04T13:04:03.496Z,32.78
2019-02-04T13:06:33.771Z,34.32
2019-02-04T13:09:06.146Z,34.22
2019-02-04T13:11:37.911Z,35.14
2019-02-04T13:14:08.597Z,34.54
2019-02-04T13:16:38.894Z,33.91
2019-02-04T13:19:10.659Z,33.95
2019-02-04T13:21:45.526Z,35.00
2019-02-04T13:24:14.358Z,35.03
2019-02-04T13:26:44.972Z,35.63
2019-02-04T13:29:15.372Z,35.61
2019-02-04T13:31:45.669Z,33.89
2019-02-04T13:34:16.094Z,33.26
2019-02-04T13:36:47.001Z,33.57
2019-02-04T13:39:17.320Z,34.38
2019-02-04T13:41:47.841Z,34.11
2019-02-04T13:44:18.139Z,32.94
2019-02-04T13:46:48.812Z,32.13
2019-02-04T13:49:19.565Z,32.23
2019-02-04T13:51:57.015Z,32.19
2019-02-04T13:54:22.269Z,32.40
2019-02-04T13:56:53.078Z,32.61
2019-02-04T13:59:23.481Z,32.32
2019-02-04T14:01:55.106Z,32.62
2019-02-04T14:04:25.819Z,32.53
2019-02-04T14:06:56.074Z,32.78
2019-02-04T14:09:26.352Z,32.40
2019-02-04T14:11:56.833Z,33.00
2019-02-04T14:14:27.188Z,33.10
2019-02-04T14:16:58.060Z,33.63
2019-02-04T14:19:28.336Z,34.24
2019-02-04T14:22:08.894Z,34.56
2019-02-04T14:24:31.167Z,35.21
2019-02-04T14:27:01.755Z,35.53
2019-02-04T14:29:33.845Z,35.94
2019-02-04T14:32:04.681Z,36.53
2019-02-04T14:34:35.105Z,37.46
2019-02-04T14:37:05.711Z,37.96
2019-02-04T14:39:36.494Z,38.12
2019-02-04T14:42:10.733Z,38.75
2019-02-04T14:44:55.417Z,38.75
2019-02-04T14:47:31.272Z,39.80
2019-02-04T14:50:28.979Z,40.42
2019-02-04T14:53:52.642Z,41.04
2019-02-04T14:56:34.667Z,41.06
2019-02-04T14:59:33.879Z,42.22
2019-02-04T15:02:34.752Z,42.62
2019-02-04T15:05:47.622Z,42.88
2019-02-04T15:08:59.080Z,43.56
2019-02-04T15:12:05.174Z,44.52
2019-02-04T15:15:28.895Z,45.48
2019-02-04T15:18:45.045Z,45.42
2019-02-04T15:21:48.788Z,45.63
2019-02-04T15:25:02.364Z,45.94
2019-02-04T15:28:08.368Z,46.27
2019-02-04T15:31:04.791Z,47.08
2019-02-04T15:33:44.971Z,47.42
2019-02-04T15:36:31.632Z,47.55
2019-02-04T15:39:14.975Z,47.90
2019-02-04T15:42:01.744Z,48.51
2019-02-04T15:45:12.507Z,48.95
2019-02-04T15:47:53.763Z,49.31
2019-02-04T15:51:11.039Z,49.82
2019-02-04T15:53:41.703Z,51.06
2019-02-04T15:56:12.867Z,54.40
2019-02-04T15:58:43.367Z,56.09
2019-02-04T16:01:14.138Z,57.56
2019-02-04T16:03:44.478Z,58.29
2019-02-04T16:06:15.197Z,58.30
2019-02-04T16:08:45.771Z,58.69
2019-02-04T16:11:16.058Z,58.87
2019-02-04T16:13:46.403Z,60.04
2019-02-04T16:16:17.158Z,61.20
2019-02-04T16:18:47.560Z,63.24
2019-02-04T16:21:17.847Z,63.72
2019-02-04T16:23:48.678Z,63.78
2019-02-04T16:26:18.952Z,64.00
2019-02-04T16:28:49.451Z,64.19
2019-02-04T16:31:20.114Z,64.26
2019-02-04T16:33:50.827Z,64.06
2019-02-04T16:36:21.568Z,64.72
2019-02-04T16:38:51.888Z,64.72
2019-02-04T16:41:22.183Z,64.87
2019-02-04T16:43:52.539Z,64.93
2019-02-04T16:46:22.866Z,65.46
2019-02-04T16:48:53.175Z,66.26
2019-02-04T16:51:23.937Z,66.00
2019-02-04T16:53:55.406Z,66.63
2019-02-04T16:56:25.829Z,66.67
2019-02-04T16:58:56.781Z,65.72
2019-02-04T17:01:27.387Z,66.10
2019-02-04T17:03:58.067Z,65.93
2019-02-04T17:06:28.428Z,65.84
2019-02-04T17:08:58.716Z,65.83
2019-02-04T17:11:29.228Z,66.52
2019-02-04T17:13:59.606Z,66.29
2019-02-04T17:16:29.900Z,65.65
2019-02-04T17:19:01.707Z,65.67
2019-02-04T17:21:32.436Z,66.28
2019-02-04T17:24:02.882Z,66.14
2019-02-04T17:26:33.660Z,65.86
2019-02-04T17:29:04.756Z,65.81
2019-02-04T17:31:35.141Z,65.98
2019-02-04T17:34:05.725Z,65.62
2019-02-04T17:36:36.493Z,65.56
2019-02-04T17:39:08.692Z,65.77
2019-02-04T17:41:38.988Z,65.61
2019-02-04T17:44:09.676Z,65.87
2019-02-04T17:46:39.963Z,66.21
2019-02-04T17:49:10.242Z,66.45
2019-02-04T17:51:41.145Z,66.52
2019-02-04T17:54:11.610Z,66.38
2019-02-04T17:56:41.954Z,66.34
2019-02-04T17:59:12.720Z,66.67
2019-02-04T18:01:43.634Z,66.49
2019-02-04T18:04:13.866Z,66.97
2019-02-04T18:06:44.583Z,67.34
2019-02-04T18:09:14.861Z,67.40
2019-02-04T18:11:45.317Z,66.88
2019-02-04T18:14:15.882Z,67.26
2019-02-04T18:16:46.237Z,66.78
2019-02-04T18:19:16.892Z,66.98
2019-02-04T18:21:47.584Z,66.50
2019-02-04T18:24:18.256Z,66.60
2019-02-04T18:26:48.971Z,66.94
2019-02-04T18:29:19.679Z,67.36
2019-02-04T18:31:50.181Z,67.33
2019-02-04T18:34:20.555Z,67.33
2019-02-04T18:36:50.970Z,67.58
2019-02-04T18:39:21.269Z,67.69
2019-02-04T18:41:51.653Z,67.51
2019-02-04T18:44:21.948Z,67.51
2019-02-04T18:46:53.108Z,67.39
2019-02-04T18:49:24.030Z,67.15
2019-02-04T18:51:54.357Z,66.77
2019-02-04T18:54:25.054Z,67.19
2019-02-04T18:56:55.762Z,67.01
2019-02-04T18:59:26.278Z,66.22
2019-02-04T19:01:57.136Z,65.37
2019-02-04T19:04:28.075Z,65.64
2019-02-04T19:06:58.339Z,65.97
2019-02-04T19:09:28.799Z,65.84
2019-02-04T19:11:59.175Z,65.99
2019-02-04T19:14:29.732Z,66.07
2019-02-04T19:17:00.231Z,66.27
2019-02-04T19:19:30.517Z,66.46
2019-02-04T19:22:00.856Z,66.45
2019-02-04T19:24:31.523Z,66.57
2019-02-04T19:27:01.791Z,67.28
2019-02-04T19:29:32.391Z,67.66
2019-02-04T19:32:03.078Z,67.67
2019-02-04T19:34:33.643Z,67.44
2019-02-04T19:37:04.237Z,67.82
2019-02-04T19:39:34.900Z,67.90
2019-02-04T19:42:05.964Z,68.16
2019-02-04T19:44:36.422Z,68.02
2019-02-04T19:47:07.512Z,68.62
2019-02-04T19:49:37.787Z,68.47
2019-02-04T19:52:08.708Z,68.67
2019-02-04T19:54:39.167Z,69.11
2019-02-04T19:57:09.438Z,69.97
2019-02-04T19:59:40.074Z,70.81
2019-02-04T20:02:10.753Z,70.93
2019-02-04T20:04:42.029Z,71.25
2019-02-04T20:07:12.645Z,70.58
2019-02-04T20:09:43.731Z,70.30
2019-02-04T20:12:14.024Z,70.01
2019-02-04T20:14:44.488Z,70.06
2019-02-04T20:17:14.803Z,70.40
2019-02-04T20:19:45.427Z,71.18
2019-02-04T20:22:16.000Z,70.97
2019-02-04T20:24:46.267Z,70.95
2019-02-04T20:27:16.941Z,70.12
2019-02-04T20:29:47.527Z,69.77
2019-02-04T20:32:17.896Z,70.30
2019-02-04T20:34:48.309Z,70.04
2019-02-04T20:37:19.467Z,70.10
2019-02-04T20:39:49.765Z,70.36
2019-02-04T20:42:21.080Z,70.66
2019-02-04T20:44:51.446Z,70.21
2019-02-04T20:47:21.763Z,69.96
2019-02-04T20:49:52.599Z,70.04
2019-02-04T20:52:22.922Z,70.21
2019-02-04T20:54:53.394Z,70.39
2019-02-04T20:57:24.100Z,70.91
2019-02-04T20:59:54.510Z,70.90
2019-02-04T21:02:24.842Z,70.34
2019-02-04T21:04:55.848Z,70.37
2019-02-04T21:07:26.159Z,70.47
2019-02-04T21:09:56.508Z,70.26
2019-02-04T21:12:27.135Z,70.20
2019-02-04T21:14:57.528Z,70.44
2019-02-04T21:17:27.813Z,69.78
2019-02-04T21:19:58.446Z,69.74
2019-02-04T21:22:28.742Z,70.54
2019-02-04T21:24:59.507Z,70.61
2019-02-04T21:27:29.783Z,70.59
2019-02-04T21:30:00.340Z,70.67
2019-02-04T21:32:32.592Z,70.93
2019-02-04T21:35:03.248Z,70.90
2019-02-04T21:37:33.522Z,70.91
2019-02-04T21:40:05.246Z,70.20
2019-02-04T21:42:36.573Z,70.11
2019-02-04T21:45:08.622Z,69.92
2019-02-04T21:47:39.245Z,69.87
2019-02-04T21:50:12.999Z,70.36
2019-02-04T21:52:43.392Z,70.29
2019-02-04T21:55:14.265Z,70.55
2019-02-04T21:57:45.357Z,70.46
2019-02-04T22:00:21.226Z,70.28
2019-02-04T22:02:51.601Z,70.40
2019-02-04T22:05:23.647Z,70.63
2019-02-04T22:07:53.932Z,70.62
2019-02-04T22:10:25.551Z,70.83
2019-02-04T22:12:55.938Z,70.65
2019-02-04T22:15:26.358Z,70.67
2019-02-04T22:17:56.782Z,70.25
2019-02-04T22:20:27.519Z,70.22
2019-02-04T22:22:57.843Z,70.08
2019-02-04T22:25:28.298Z,70.17
2019-02-04T22:27:58.608Z,69.88
2019-02-04T22:30:30.199Z,69.74
2019-02-04T22:33:00.740Z,69.97
2019-02-04T22:35:31.028Z,70.12
2019-02-04T22:38:01.827Z,71.41
2019-02-04T22:40:32.165Z,72.69
2019-02-04T22:43:02.491Z,72.76
2019-02-04T22:45:32.777Z,71.74
2019-02-04T22:48:03.295Z,70.83
2019-02-04T22:50:33.596Z,70.09
2019-02-04T22:53:04.396Z,70.17
2019-02-04T22:55:34.696Z,70.07
2019-02-04T22:58:05.427Z,70.12
2019-02-04T23:01:03.727Z,69.65
2019-02-04T23:03:34.510Z,69.44
2019-02-04T23:06:04.911Z,69.02
2019-02-04T23:08:35.691Z,68.66
2019-02-04T23:11:06.071Z,67.75
2019-02-04T23:13:36.764Z,67.95
2019-02-04T23:16:07.151Z,68.14
2019-02-04T23:18:37.466Z,67.71
2019-02-04T23:21:07.776Z,67.47
2019-02-04T23:23:38.106Z,67.38
2019-02-04T23:26:09.018Z,66.95
2019-02-04T23:28:39.339Z,66.67
2019-02-04T23:31:09.981Z,67.06
2019-02-04T23:33:40.397Z,67.52
2019-02-04T23:36:10.903Z,67.22
2019-02-04T23:38:41.592Z,67.37
2019-02-04T23:41:11.842Z,67.08
2019-02-04T23:43:42.115Z,66.73
2019-02-04T23:46:12.925Z,67.52
2019-02-04T23:48:43.210Z,67.33
2019-02-04T23:51:13.525Z,66.46
2019-02-04T23:53:45.566Z,66.96
2019-02-04T23:56:16.112Z,68.33
2019-02-04T23:58:46.407Z,67.89
